logo dgac
Domingo 21 de Abril del 2024
Buscar por aerodromo o helipuerto
Ingrese nombre de aeródromo, localidad o designador OACI:

Aeródromo: El Tepual (PUB) (SCTE)

Ubicación: Puerto Montt, X Región, Chile (41º 26' 20'' S, 73º 05' 38'' W) Ver ubicación en el mapa

Pistas

Luces
Orientación Dimensión Pendiente Superficie Resistencia APCH THR RWY PAPI
17/35 2650 x 45 CONC 54 R/B/W/T Sí (3º)
Horas de operación H24
Elevación 90 m / 294 ft
Otra Información Adm : DGAC.
Uso : PUB
Ubicado a 14 km NW de Puerto Montt
TEL ARO (56) 65 2486221
TEL MET (56) 65-2486361 Anexo 6361 / 65-2486366 Anexo 6366
email : aro.eltepual@dgac.gob.cl

Otra información ver AIP-Chile Volumen I AD 2.7-1 SCTE
CCCM/FCCV Descargar CCCM/FCCV
andera de Chile
Mapa de El Tepual (PUB) (SCTE)

Último METAR

METAR SCTE 210700Z 19006KT CAVOK 07/07 Q1020 NOSIG

Último TAF

TAF SCTE 210409Z 2106/2206 17010KT CAVOK TN05/2106Z TX12/2118Z BECMG 2202/2204 6000 SHRA SCT025 BKN050

Últimas fotos cámaras

Imagen aerodromo El Tepual (PUB) (SCTE) Sur tomada el 21-04-2024 07:50:13 Imagen aerodromo El Tepual (PUB) (SCTE) Norte tomada el 21-04-2024 07:50:12

Último NOTAM

A1348/24 NOTAMR A1266/24 Q)SCTZ/QMRHW/IV/NBO/A/000/999/4126S07306W005 A)SCTE B)2404171353 C)2405031100 D)APR 17 BTN 2100-2359 / APR 18 BTN 0000-1100 / APR 19-MAY 03 DLY BTN 0100-1100 E)RWY 17 WIP (MEN AND MACHINERY) SECT PAPI 35,CTN INSTRUCTIONS: PUERTO MONTT GNDC 121.9MHZ